Station: Richmond  

  Atmospheric Gas Attenuation - ITU Rec 676-11   ----------------- dB/100km -----------------
Date Time Temp RH % AH g/m3 Dew Point Wind Direction Speed kph Gust kph Barometer mB Rainfall Since 9am 24GHz 47GHz 76GHz 122GHz 134GHz 241GHz
08/05 12:30 27.8 37 9.95 11.8 26 37 1016.7 0 21.7 24.2 38.2 100.4 97.9 338.4
08/05 12:20 28.5 37 10.34 12.4 28 33 1017 0 22.5 24.6 39.3 103.2 101.5 351.2
08/05 12:10 27.6 38 10.11 12 22 28 1017.2 0 22.1 24.5 38.9 102.2 100.0 345.8
08/05 12:00 27 39 10.04 11.9 26 37 1017.4 0 22.0 24.6 38.9 102.3 100.0 345.6
08/05 11:50 26.6 40 10.07 11.9 28 35 1017.7 0 22.0 24.7 39.3 103.1 100.9 348.6
08/05 11:40 26 39 9.49 11 30 35 1018 0 20.9 24.1 37.5 98.4 94.9 327.5
08/05 11:30 26 39 9.49 11 28 39 1018.1 0 20.9 24.1 37.5 98.4 94.9 327.5
08/05 11:20 26.5 39 9.76 11.4 26 32 1018.4 0 21.4 24.3 38.2 100.4 97.4 336.6
08/05 11:10 25.6 40 9.52 11 32 33 1018.5 0 20.9 24.2 37.8 99.2 95.7 330.5
08/05 11:00 25.2 39 9.08 10.3 30 39 1018.5 0 20.0 23.7 36.4 95.6 91.1 314.2
08/05 10:50 25.6 39 9.28 10.6 26 32 1018.7 0 20.4 23.9 37.0 97.0 92.9 320.8
08/05 10:40 24.5 40 8.95 10 26 30 1018.8 0 19.8 23.7 36.3 95.2 90.4 311.7
08/05 10:30 24.5 41 9.18 10.4 26 35 1018.8 0 20.3 24.0 37.1 97.4 93.1 321.1
08/05 10:20 24.2 40 8.8 9.8 24 30 1018.8 0 19.5 23.6 35.9 94.1 89.0 306.7
08/05 10:10 23.8 42 9.03 10.1 26 28 1018.9 0 20.0 24.0 36.9 96.8 92.1 317.7
08/05 10:00 22.9 43 8.79 9.7 30 35 1018.9 0 19.6 23.9 36.5 95.6 90.3 311.3
08/05 09:50 22.4 43 8.54 9.2 26 32 1019 0 19.1 23.7 35.8 93.8 87.9 302.9
08/05 09:40 22.7 42 8.49 9.1 28 30 1019 0 18.9 23.5 35.5 93.0 87.0 299.7
08/05 09:30 21.8 44 8.44 9 28 37 1018.9 0 18.9 23.7 35.7 93.5 87.4 300.9
08/05 09:20 21.6 44 8.34 8.8 26 30 1019 0 18.7 23.6 35.4 92.8 86.5 297.6
08/05 09:10 21.5 44 8.3 8.7 28 37 1018.9 0 18.6 23.5 35.3 92.5 86.1 296.2
08/05 09:00 20.8 45 8.15 8.4 32 39 1018.7 0 18.3 23.5 35.1 91.8 85.0 292.5
08/05 08:50 20.5 45 8.01 8.2 28 35 1018.8 0 18.0 23.4 34.7 90.8 83.7 287.8
08/05 08:40 19.9 46 7.9 7.9 24 30 1018.8 0 17.8 23.4 34.6 90.4 83.0 285.3
08/05 08:30 19.6 47 7.93 8 24 35 1018.7 0 17.9 23.5 34.8 91.1 83.7 287.6
08/05 08:20 19 48 7.82 7.8 22 26 1018.7 0 17.7 23.5 34.6 90.7 83.0 285.1
08/05 08:10 18.3 49 7.66 7.4 24 28 1018.6 0 17.4 23.4 34.4 89.9 81.8 280.8
08/05 08:00 18.1 50 7.72 7.5 24 32 1018.5 0 17.5 23.5 34.7 90.7 82.7 284.0
08/05 07:50 17.7 52 7.85 7.7 24 30 1018.4 0 17.8 23.8 35.3 92.4 84.7 291.0
08/05 07:40 17.3 52 7.66 7.4 28 32 1018.3 0 17.4 23.7 34.8 91.0 82.8 284.3
08/05 07:30 17.1 53 7.71 7.5 24 32 1018.3 0 17.5 23.8 35.0 91.7 83.6 287.1
08/05 07:20 16.8 55 7.86 7.7 22 24 1018.2 0 17.9 24.1 35.7 93.5 85.8 294.7
08/05 07:10 16.6 55 7.77 7.5 22 28 1018 0 17.7 24.0 35.5 92.8 84.9 291.4
08/05 07:00 16.6 56 7.91 7.8 22 32 1017.7 0 18.0 24.2 36.0 94.2 86.6 297.5
08/05 06:50 16.5 56 7.86 7.7 20 28 1017.5 0 17.9 24.1 35.8 93.8 86.1 295.6
08/05 06:40 16.7 55 7.82 7.6 26 30 1017.3 0 17.8 24.0 35.6 93.2 85.3 293.1
08/05 06:30 16.7 56 7.96 7.9 24 32 1017.2 0 18.1 24.2 36.1 94.6 87.1 299.1
08/05 06:20 16.7 57 8.1 8.1 24 28 1017.2 0 18.4 24.4 36.6 96.0 88.8 305.3
08/05 06:10 16.6 58 8.19 8.3 22 26 1017 0 18.6 24.6 37.0 97.0 90.0 309.5
08/05 06:00 16.3 61 8.46 8.8 17 22 1016.9 0 19.2 25.1 38.2 100.1 93.8 322.7
08/05 05:50 15.4 67 8.8 9.3 17 19 1017 0 19.9 25.9 40.0 104.8 99.3 341.8
08/05 05:40 14.7 71 8.94 9.5 15 15 1016.9 0 20.3 26.3 40.9 107.3 102.0 351.3
08/05 05:30 14.9 71 9.05 9.7 15 17 1016.8 0 20.5 26.4 41.2 108.2 103.2 355.5
08/05 05:20 14.9 71 9.05 9.7 17 17 1016.8 0 20.5 26.4 41.2 108.2 103.2 355.5
08/05 05:10 14.8 73 9.25 10 15 17 1016.8 0 20.9 26.8 42.1 110.5 106.0 365.3
08/05 05:00 14.8 73 9.25 10 15 17 1016.5 0 20.9 26.8 42.1 110.4 106.0 365.2
08/05 04:50 14.7 73 9.19 9.9 15 15 1016.4 0 20.8 26.7 41.9 109.9 105.3 362.8
08/05 04:40 14.9 73 9.3 10.1 15 17 1016.4 0 21.0 26.8 42.2 110.8 106.5 367.0
08/05 04:30 15.1 72 9.29 10.1 13 17 1016.2 0 21.0 26.7 42.0 110.4 106.1 365.5
08/05 04:20 15.3 71 9.27 10.1 15 15 1016.3 0 20.9 26.7 41.9 109.9 105.6 363.7
08/05 04:10 15.4 71 9.33 10.2 15 17 1016.2 0 21.1 26.7 42.0 110.4 106.2 366.0
08/05 04:00 15.6 70 9.31 10.2 13 17 1016 0 21.0 26.6 41.9 109.9 105.7 364.1
08/05 03:50 15.7 70 9.37 10.2 13 13 1016.2 0 21.1 26.7 42.0 110.4 106.3 366.5
08/05 03:40 16.1 69 9.46 10.4 15 17 1016.2 0 21.3 26.7 42.2 110.8 107.0 368.8
08/05 03:30 16.2 68 9.38 10.3 15 19 1016.1 0 21.1 26.6 41.8 109.8 105.8 364.6
08/05 03:20 16 70 9.54 10.5 15 15 1016.2 0 21.5 26.9 42.6 111.8 108.2 372.9
08/05 03:10 16.1 69 9.46 10.4 15 17 1016.2 0 21.3 26.7 42.2 110.8 107.0 368.8
08/05 03:00 16.5 68 9.55 10.6 15 19 1016.1 0 21.5 26.7 42.3 111.2 107.6 371.0
08/05 02:50 16.4 68 9.49 10.5 15 17 1016.3 0 21.4 26.7 42.2 110.8 107.0 368.8
08/05 02:40 16.4 68 9.49 10.5 15 17 1016.4 0 21.4 26.7 42.2 110.8 107.0 368.8
08/05 02:30 16.8 66 9.44 10.4 13 17 1016.2 0 21.2 26.5 41.7 109.7 105.8 364.6
08/05 02:20 17.5 62 9.24 10.1 13 15 1016.2 0 20.8 26.0 40.6 106.6 102.2 352.3
08/05 02:10 18.3 59 9.22 10.2 17 19 1016.1 0 20.7 25.7 40.1 105.3 100.9 347.9
08/05 02:00 18.7 57 9.13 10 20 26 1016.1 0 20.5 25.4 39.6 103.9 99.3 342.1
08/05 01:50 19.2 56 9.23 10.2 20 24 1016.2 0 20.7 25.5 39.7 104.2 99.9 344.4
08/05 01:40 19.5 55 9.23 10.2 22 26 1016.2 0 20.6 25.4 39.6 103.8 99.5 343.1
08/05 01:30 19.7 55 9.34 10.4 24 32 1016.2 0 20.9 25.5 39.9 104.7 100.6 347.1
08/05 01:20 19.9 54 9.28 10.3 20 28 1016.4 0 20.7 25.3 39.6 103.9 99.7 343.6
08/05 01:10 19.9 55 9.45 10.6 26 32 1016.5 0 21.1 25.6 40.2 105.6 101.8 351.1
08/05 01:00 20.1 55 9.56 10.8 22 32 1016.6 0 21.3 25.7 40.5 106.5 102.9 355.1
08/05 00:50 20 56 9.68 11 22 26 1016.7 0 21.6 25.9 41.0 107.8 104.6 360.9
08/05 00:40 20.1 56 9.73 11.1 20 24 1016.8 0 21.7 26.0 41.2 108.2 105.1 362.7
08/05 00:30 20 57 9.85 11.2 22 33 1016.7 0 21.9 26.2 41.7 109.6 106.7 368.4
08/05 00:20 20.2 56 9.79 11.1 20 24 1016.8 0 21.8 26.1 41.4 108.7 105.7 364.8
08/05 00:10 20.5 56 9.96 11.4 24 28 1016.9 0 22.1 26.2 41.9 110.0 107.5 371.0
08/05 00:00 20.7 56 10.08 11.6 24 32 1016.9 0 22.4 26.4 42.2 111.0 108.7 375.4
07/05 23:50 20.8 56 10.14 11.7 22 28 1017 0 22.5 26.4 42.4 111.5 109.3 377.6
07/05 23:40 20.8 57 10.32 12 20 24 1017.1 0 22.9 26.7 43.1 113.4 111.6 385.7
07/05 23:30 20.8 58 10.5 12.2 22 28 1017 0 23.3 27.0 43.8 115.2 113.9 393.7
07/05 23:20 20.7 58 10.44 12.1 22 28 1017.1 0 23.1 26.9 43.6 114.7 113.3 391.5
07/05 23:10 20.6 58 10.38 12.1 28 33 1017 0 23.0 26.9 43.5 114.3 112.7 389.3
07/05 23:00 20.6 59 10.56 12.3 24 30 1016.9 0 23.4 27.1 44.2 116.1 115.0 397.4
07/05 22:50 20.5 60 10.68 12.5 24 30 1017 0 23.7 27.4 44.7 117.5 116.7 403.3
07/05 22:40 20.5 60 10.68 12.5 22 26 1017 0 23.7 27.4 44.7 117.5 116.7 403.3
07/05 22:30 20.6 60 10.74 12.6 24 32 1017 0 23.8 27.4 44.9 118.0 117.3 405.6
07/05 22:20 20.8 60 10.86 12.8 26 32 1017 0 24.0 27.6 45.2 119.0 118.6 410.0
07/05 22:10 21.1 59 10.87 12.8 24 26 1017.1 0 24.0 27.5 45.1 118.7 118.3 408.9
07/05 22:00 21.3 58 10.81 12.7 26 33 1016.9 0 23.9 27.3 44.7 117.7 117.2 405.1
07/05 21:50 21.5 58 10.94 12.9 26 30 1017.1 0 24.1 27.5 45.2 118.8 118.6 410.0
07/05 21:40 21.5 58 10.94 12.9 24 28 1017 0 24.1 27.5 45.2 118.8 118.6 410.0
07/05 21:30 21.6 58 11 13 22 32 1016.9 0 24.3 27.5 45.3 119.3 119.2 412.1
07/05 21:20 21.7 58 11.06 13.1 22 24 1016.9 0 24.4 27.6 45.5 119.7 119.8 414.3
07/05 21:10 21.8 57 10.94 12.9 20 26 1016.9 0 24.1 27.4 45.0 118.3 118.1 408.4
07/05 21:00 22.1 57 11.13 13.2 24 32 1016.5 0 24.5 27.6 45.5 119.8 120.0 415.2
07/05 20:50 22.4 56 11.12 13.2 26 30 1016.6 0 24.5 27.5 45.3 119.3 119.5 413.2
07/05 20:40 22.6 55 11.05 13.1 22 28 1016.5 0 24.3 27.3 44.9 118.2 118.3 409.0
07/05 20:30 22.9 54 11.04 13.1 28 37 1016.4 0 24.3 27.2 44.7 117.7 117.7 407.0
07/05 20:20 23 53 10.89 12.9 26 30 1016.4 0 24.0 26.9 44.1 116.0 115.6 399.9
07/05 20:10 23.2 53 11.02 13.1 26 28 1016.3 0 24.2 27.1 44.5 117.0 117.0 404.6
07/05 20:00 23.2 53 11.02 13.1 26 33 1016.1 0 24.2 27.1 44.5 117.0 116.9 404.5

Last Refresh: 08-May-2026 12:07:20

Bureau of Meteorology